sensor_id;sensor_type;location;lat;lon;timestamp;P1;durP1;ratioP1;P2;durP2;ratioP2
59306;SDS011;47983;53.016;-2.260;2023-07-22T00:00:21;1.95;;;1.75;;
59306;SDS011;47983;53.016;-2.260;2023-07-22T00:02:49;5.10;;;1.98;;
59306;SDS011;47983;53.016;-2.260;2023-07-22T00:05:17;3.47;;;1.85;;
59306;SDS011;47983;53.016;-2.260;2023-07-22T00:07:50;4.47;;;1.77;;
59306;SDS011;47983;53.016;-2.260;2023-07-22T00:10:18;3.45;;;1.80;;
59306;SDS011;47983;53.016;-2.260;2023-07-22T00:12:46;4.22;;;2.05;;
59306;SDS011;47983;53.016;-2.260;2023-07-22T00:15:14;3.53;;;1.60;;
59306;SDS011;47983;53.016;-2.260;2023-07-22T00:17:42;3.20;;;1.88;;
59306;SDS011;47983;53.016;-2.260;2023-07-22T00:20:10;2.65;;;1.77;;
59306;SDS011;47983;53.016;-2.260;2023-07-22T00:22:39;4.03;;;2.20;;
59306;SDS011;47983;53.016;-2.260;2023-07-22T00:25:07;4.53;;;1.92;;
59306;SDS011;47983;53.016;-2.260;2023-07-22T00:27:39;4.55;;;2.20;;
59306;SDS011;47983;53.016;-2.260;2023-07-22T00:30:08;6.07;;;1.90;;
59306;SDS011;47983;53.016;-2.260;2023-07-22T00:32:36;4.18;;;2.10;;
59306;SDS011;47983;53.016;-2.260;2023-07-22T00:35:04;4.65;;;2.22;;
59306;SDS011;47983;53.016;-2.260;2023-07-22T00:37:33;3.58;;;1.90;;
59306;SDS011;47983;53.016;-2.260;2023-07-22T00:40:01;3.03;;;1.75;;
59306;SDS011;47983;53.016;-2.260;2023-07-22T00:42:33;4.80;;;1.90;;
59306;SDS011;47983;53.016;-2.260;2023-07-22T00:45:00;3.22;;;1.80;;
59306;SDS011;47983;53.016;-2.260;2023-07-22T00:47:28;6.00;;;2.13;;
59306;SDS011;47983;53.016;-2.260;2023-07-22T00:49:56;4.65;;;2.20;;
59306;SDS011;47983;53.016;-2.260;2023-07-22T00:52:24;6.13;;;2.08;;
59306;SDS011;47983;53.016;-2.260;2023-07-22T00:54:51;3.22;;;2.00;;
59306;SDS011;47983;53.016;-2.260;2023-07-22T00:57:19;4.95;;;1.90;;
59306;SDS011;47983;53.016;-2.260;2023-07-22T00:59:47;4.40;;;2.17;;
59306;SDS011;47983;53.016;-2.260;2023-07-22T01:02:16;3.80;;;2.00;;
59306;SDS011;47983;53.016;-2.260;2023-07-22T01:04:45;3.95;;;1.85;;
59306;SDS011;47983;53.016;-2.260;2023-07-22T01:07:13;5.45;;;1.95;;
59306;SDS011;47983;53.016;-2.260;2023-07-22T01:09:42;3.03;;;2.20;;
59306;SDS011;47983;53.016;-2.260;2023-07-22T01:12:11;2.78;;;2.20;;
59306;SDS011;47983;53.016;-2.260;2023-07-22T01:14:41;3.72;;;2.50;;
59306;SDS011;47983;53.016;-2.260;2023-07-22T01:17:10;3.53;;;1.90;;
59306;SDS011;47983;53.016;-2.260;2023-07-22T01:19:40;4.93;;;2.50;;
59306;SDS011;47983;53.016;-2.260;2023-07-22T01:22:08;4.15;;;2.05;;
59306;SDS011;47983;53.016;-2.260;2023-07-22T01:24:38;5.65;;;2.47;;
59306;SDS011;47983;53.016;-2.260;2023-07-22T01:27:06;4.65;;;2.40;;
59306;SDS011;47983;53.016;-2.260;2023-07-22T01:29:37;4.95;;;2.30;;
59306;SDS011;47983;53.016;-2.260;2023-07-22T01:32:04;5.40;;;2.30;;
59306;SDS011;47983;53.016;-2.260;2023-07-22T01:34:33;5.93;;;2.35;;
59306;SDS011;47983;53.016;-2.260;2023-07-22T01:37:00;4.43;;;2.45;;
59306;SDS011;47983;53.016;-2.260;2023-07-22T01:39:28;5.05;;;2.40;;
59306;SDS011;47983;53.016;-2.260;2023-07-22T01:41:56;5.57;;;2.25;;
59306;SDS011;47983;53.016;-2.260;2023-07-22T01:44:23;6.32;;;2.60;;
59306;SDS011;47983;53.016;-2.260;2023-07-22T01:46:51;6.38;;;2.95;;
59306;SDS011;47983;53.016;-2.260;2023-07-22T01:49:19;6.35;;;2.75;;
59306;SDS011;47983;53.016;-2.260;2023-07-22T01:51:46;4.63;;;2.42;;
59306;SDS011;47983;53.016;-2.260;2023-07-22T01:54:14;3.15;;;2.10;;
59306;SDS011;47983;53.016;-2.260;2023-07-22T01:56:42;4.10;;;2.50;;
59306;SDS011;47983;53.016;-2.260;2023-07-22T01:59:09;3.72;;;2.63;;
59306;SDS011;47983;53.016;-2.260;2023-07-22T02:01:37;4.50;;;3.15;;
59306;SDS011;47983;53.016;-2.260;2023-07-22T02:04:05;6.47;;;2.40;;
59306;SDS011;47983;53.016;-2.260;2023-07-22T02:06:33;7.07;;;2.50;;
59306;SDS011;47983;53.016;-2.260;2023-07-22T02:09:02;6.47;;;2.28;;
59306;SDS011;47983;53.016;-2.260;2023-07-22T02:11:36;9.65;;;3.60;;
59306;SDS011;47983;53.016;-2.260;2023-07-22T02:14:03;5.28;;;2.28;;
59306;SDS011;47983;53.016;-2.260;2023-07-22T02:16:35;4.97;;;2.70;;
59306;SDS011;47983;53.016;-2.260;2023-07-22T02:19:04;4.05;;;2.47;;
59306;SDS011;47983;53.016;-2.260;2023-07-22T02:21:39;5.65;;;2.38;;
59306;SDS011;47983;53.016;-2.260;2023-07-22T02:24:07;4.25;;;2.60;;
59306;SDS011;47983;53.016;-2.260;2023-07-22T02:26:35;4.07;;;2.35;;
59306;SDS011;47983;53.016;-2.260;2023-07-22T02:29:03;8.25;;;2.45;;
59306;SDS011;47983;53.016;-2.260;2023-07-22T02:31:30;3.25;;;2.20;;
59306;SDS011;47983;53.016;-2.260;2023-07-22T02:33:58;8.18;;;2.65;;
59306;SDS011;47983;53.016;-2.260;2023-07-22T02:36:26;6.22;;;3.00;;
59306;SDS011;47983;53.016;-2.260;2023-07-22T02:38:55;4.65;;;3.05;;
59306;SDS011;47983;53.016;-2.260;2023-07-22T02:41:23;8.00;;;2.22;;
59306;SDS011;47983;53.016;-2.260;2023-07-22T02:43:51;4.45;;;2.30;;
59306;SDS011;47983;53.016;-2.260;2023-07-22T02:46:19;3.65;;;2.45;;
59306;SDS011;47983;53.016;-2.260;2023-07-22T02:48:47;3.97;;;2.95;;
59306;SDS011;47983;53.016;-2.260;2023-07-22T02:51:14;3.15;;;2.47;;
59306;SDS011;47983;53.016;-2.260;2023-07-22T02:53:42;6.30;;;2.78;;
59306;SDS011;47983;53.016;-2.260;2023-07-22T02:56:11;5.07;;;2.27;;
59306;SDS011;47983;53.016;-2.260;2023-07-22T02:58:39;9.18;;;2.42;;
59306;SDS011;47983;53.016;-2.260;2023-07-22T03:01:09;4.10;;;2.35;;
59306;SDS011;47983;53.016;-2.260;2023-07-22T03:03:37;5.68;;;2.75;;
59306;SDS011;47983;53.016;-2.260;2023-07-22T03:06:07;8.25;;;2.58;;
59306;SDS011;47983;53.016;-2.260;2023-07-22T03:08:36;4.88;;;2.58;;
59306;SDS011;47983;53.016;-2.260;2023-07-22T03:11:04;4.45;;;2.53;;
59306;SDS011;47983;53.016;-2.260;2023-07-22T03:13:32;6.43;;;2.60;;
59306;SDS011;47983;53.016;-2.260;2023-07-22T03:16:00;4.15;;;2.50;;
59306;SDS011;47983;53.016;-2.260;2023-07-22T03:18:31;4.95;;;2.50;;
59306;SDS011;47983;53.016;-2.260;2023-07-22T03:20:59;3.30;;;2.17;;
59306;SDS011;47983;53.016;-2.260;2023-07-22T03:23:39;6.18;;;2.65;;
59306;SDS011;47983;53.016;-2.260;2023-07-22T03:26:07;6.05;;;2.55;;
59306;SDS011;47983;53.016;-2.260;2023-07-22T03:28:34;7.47;;;2.60;;
59306;SDS011;47983;53.016;-2.260;2023-07-22T03:31:02;6.00;;;2.97;;
59306;SDS011;47983;53.016;-2.260;2023-07-22T03:33:31;4.57;;;2.50;;
59306;SDS011;47983;53.016;-2.260;2023-07-22T03:35:59;5.82;;;3.25;;
59306;SDS011;47983;53.016;-2.260;2023-07-22T03:38:26;5.65;;;3.22;;
59306;SDS011;47983;53.016;-2.260;2023-07-22T03:40:54;7.63;;;2.47;;
59306;SDS011;47983;53.016;-2.260;2023-07-22T03:43:22;6.45;;;2.60;;
59306;SDS011;47983;53.016;-2.260;2023-07-22T03:45:49;3.72;;;2.22;;
59306;SDS011;47983;53.016;-2.260;2023-07-22T03:48:17;3.70;;;2.50;;
59306;SDS011;47983;53.016;-2.260;2023-07-22T03:50:45;8.80;;;3.03;;
59306;SDS011;47983;53.016;-2.260;2023-07-22T03:53:13;6.22;;;2.97;;
59306;SDS011;47983;53.016;-2.260;2023-07-22T03:55:40;7.63;;;3.53;;
59306;SDS011;47983;53.016;-2.260;2023-07-22T03:58:08;7.15;;;3.05;;
59306;SDS011;47983;53.016;-2.260;2023-07-22T04:00:37;7.80;;;3.17;;
59306;SDS011;47983;53.016;-2.260;2023-07-22T04:03:05;7.47;;;2.90;;
59306;SDS011;47983;53.016;-2.260;2023-07-22T04:05:34;4.78;;;2.92;;
59306;SDS011;47983;53.016;-2.260;2023-07-22T04:08:01;4.85;;;2.65;;
59306;SDS011;47983;53.016;-2.260;2023-07-22T04:10:29;5.10;;;3.00;;
59306;SDS011;47983;53.016;-2.260;2023-07-22T04:12:56;5.35;;;2.85;;
59306;SDS011;47983;53.016;-2.260;2023-07-22T04:15:24;6.25;;;3.03;;
59306;SDS011;47983;53.016;-2.260;2023-07-22T04:17:52;5.47;;;4.03;;
59306;SDS011;47983;53.016;-2.260;2023-07-22T04:20:22;8.90;;;2.85;;
59306;SDS011;47983;53.016;-2.260;2023-07-22T04:22:52;9.20;;;3.40;;
59306;SDS011;47983;53.016;-2.260;2023-07-22T04:25:20;7.65;;;3.03;;
59306;SDS011;47983;53.016;-2.260;2023-07-22T04:27:47;8.73;;;3.42;;
59306;SDS011;47983;53.016;-2.260;2023-07-22T04:30:15;9.38;;;3.88;;
59306;SDS011;47983;53.016;-2.260;2023-07-22T04:32:47;4.63;;;3.22;;
59306;SDS011;47983;53.016;-2.260;2023-07-22T04:35:16;6.40;;;3.45;;
59306;SDS011;47983;53.016;-2.260;2023-07-22T04:37:44;7.43;;;4.07;;
59306;SDS011;47983;53.016;-2.260;2023-07-22T04:40:12;8.40;;;3.50;;
59306;SDS011;47983;53.016;-2.260;2023-07-22T04:42:44;10.73;;;3.95;;
59306;SDS011;47983;53.016;-2.260;2023-07-22T04:45:13;7.15;;;3.80;;
59306;SDS011;47983;53.016;-2.260;2023-07-22T04:47:41;10.13;;;4.40;;
59306;SDS011;47983;53.016;-2.260;2023-07-22T04:50:11;8.65;;;4.32;;
59306;SDS011;47983;53.016;-2.260;2023-07-22T04:52:43;8.70;;;4.15;;
59306;SDS011;47983;53.016;-2.260;2023-07-22T04:55:13;8.73;;;4.15;;
59306;SDS011;47983;53.016;-2.260;2023-07-22T04:57:43;7.50;;;3.58;;
59306;SDS011;47983;53.016;-2.260;2023-07-22T05:00:12;11.57;;;3.60;;
59306;SDS011;47983;53.016;-2.260;2023-07-22T05:02:42;11.73;;;4.45;;
59306;SDS011;47983;53.016;-2.260;2023-07-22T05:05:14;11.15;;;3.85;;
59306;SDS011;47983;53.016;-2.260;2023-07-22T05:07:45;11.32;;;4.05;;
59306;SDS011;47983;53.016;-2.260;2023-07-22T05:10:12;8.93;;;3.97;;
59306;SDS011;47983;53.016;-2.260;2023-07-22T05:12:42;13.98;;;4.65;;
59306;SDS011;47983;53.016;-2.260;2023-07-22T05:15:11;8.05;;;4.70;;
59306;SDS011;47983;53.016;-2.260;2023-07-22T05:17:40;6.95;;;4.40;;
59306;SDS011;47983;53.016;-2.260;2023-07-22T05:20:08;10.02;;;4.72;;
59306;SDS011;47983;53.016;-2.260;2023-07-22T05:22:37;8.43;;;4.72;;
59306;SDS011;47983;53.016;-2.260;2023-07-22T05:25:05;10.40;;;4.65;;
59306;SDS011;47983;53.016;-2.260;2023-07-22T05:27:33;11.02;;;5.32;;
59306;SDS011;47983;53.016;-2.260;2023-07-22T05:30:01;8.25;;;4.45;;
59306;SDS011;47983;53.016;-2.260;2023-07-22T05:32:29;12.35;;;5.07;;
59306;SDS011;47983;53.016;-2.260;2023-07-22T05:35:00;10.48;;;5.32;;
59306;SDS011;47983;53.016;-2.260;2023-07-22T05:37:29;10.68;;;5.07;;
59306;SDS011;47983;53.016;-2.260;2023-07-22T05:39:57;9.52;;;5.07;;
59306;SDS011;47983;53.016;-2.260;2023-07-22T05:42:26;13.13;;;6.10;;
59306;SDS011;47983;53.016;-2.260;2023-07-22T05:44:56;12.63;;;5.88;;
59306;SDS011;47983;53.016;-2.260;2023-07-22T05:47:25;8.70;;;5.07;;
59306;SDS011;47983;53.016;-2.260;2023-07-22T05:49:53;15.35;;;6.30;;
59306;SDS011;47983;53.016;-2.260;2023-07-22T05:52:20;12.82;;;5.38;;
59306;SDS011;47983;53.016;-2.260;2023-07-22T05:54:48;18.40;;;6.00;;
59306;SDS011;47983;53.016;-2.260;2023-07-22T05:57:16;15.93;;;5.43;;
59306;SDS011;47983;53.016;-2.260;2023-07-22T05:59:44;12.35;;;6.10;;
59306;SDS011;47983;53.016;-2.260;2023-07-22T06:02:12;17.27;;;6.53;;
59306;SDS011;47983;53.016;-2.260;2023-07-22T06:04:41;14.10;;;7.03;;
59306;SDS011;47983;53.016;-2.260;2023-07-22T06:07:09;14.25;;;7.00;;
59306;SDS011;47983;53.016;-2.260;2023-07-22T06:09:37;17.45;;;7.57;;
59306;SDS011;47983;53.016;-2.260;2023-07-22T06:12:04;14.75;;;7.00;;
59306;SDS011;47983;53.016;-2.260;2023-07-22T06:14:34;15.98;;;7.05;;
59306;SDS011;47983;53.016;-2.260;2023-07-22T06:17:02;15.88;;;7.40;;
59306;SDS011;47983;53.016;-2.260;2023-07-22T06:19:29;15.52;;;6.97;;
59306;SDS011;47983;53.016;-2.260;2023-07-22T06:21:58;15.05;;;7.68;;
59306;SDS011;47983;53.016;-2.260;2023-07-22T06:24:26;22.02;;;7.75;;
59306;SDS011;47983;53.016;-2.260;2023-07-22T06:26:54;18.65;;;8.45;;
59306;SDS011;47983;53.016;-2.260;2023-07-22T06:29:22;16.63;;;7.35;;
59306;SDS011;47983;53.016;-2.260;2023-07-22T06:31:49;19.35;;;8.75;;
59306;SDS011;47983;53.016;-2.260;2023-07-22T06:34:17;16.05;;;7.40;;
59306;SDS011;47983;53.016;-2.260;2023-07-22T06:36:45;18.02;;;7.88;;
59306;SDS011;47983;53.016;-2.260;2023-07-22T06:39:12;19.02;;;7.95;;
59306;SDS011;47983;53.016;-2.260;2023-07-22T06:41:40;21.83;;;8.73;;
59306;SDS011;47983;53.016;-2.260;2023-07-22T06:44:07;18.65;;;8.02;;
59306;SDS011;47983;53.016;-2.260;2023-07-22T06:46:35;15.40;;;7.53;;
59306;SDS011;47983;53.016;-2.260;2023-07-22T06:49:15;17.52;;;8.23;;
59306;SDS011;47983;53.016;-2.260;2023-07-22T06:51:43;16.10;;;7.05;;
59306;SDS011;47983;53.016;-2.260;2023-07-22T06:54:11;18.27;;;7.97;;
59306;SDS011;47983;53.016;-2.260;2023-07-22T06:56:38;14.52;;;7.57;;
59306;SDS011;47983;53.016;-2.260;2023-07-22T06:59:06;19.25;;;7.05;;
59306;SDS011;47983;53.016;-2.260;2023-07-22T07:01:34;15.65;;;7.53;;
59306;SDS011;47983;53.016;-2.260;2023-07-22T07:04:02;18.73;;;7.13;;
59306;SDS011;47983;53.016;-2.260;2023-07-22T07:06:30;14.50;;;7.50;;
59306;SDS011;47983;53.016;-2.260;2023-07-22T07:08:59;16.15;;;6.75;;
59306;SDS011;47983;53.016;-2.260;2023-07-22T07:11:28;18.45;;;7.35;;
59306;SDS011;47983;53.016;-2.260;2023-07-22T07:13:56;16.95;;;7.63;;
59306;SDS011;47983;53.016;-2.260;2023-07-22T07:16:25;11.63;;;6.43;;
59306;SDS011;47983;53.016;-2.260;2023-07-22T07:18:59;13.90;;;6.13;;
59306;SDS011;47983;53.016;-2.260;2023-07-22T07:21:27;12.85;;;6.30;;
59306;SDS011;47983;53.016;-2.260;2023-07-22T07:23:55;18.45;;;6.68;;
59306;SDS011;47983;53.016;-2.260;2023-07-22T07:26:23;14.52;;;5.57;;
59306;SDS011;47983;53.016;-2.260;2023-07-22T07:28:51;15.98;;;6.32;;
59306;SDS011;47983;53.016;-2.260;2023-07-22T07:31:19;10.32;;;5.63;;
59306;SDS011;47983;53.016;-2.260;2023-07-22T07:33:47;12.90;;;5.53;;
59306;SDS011;47983;53.016;-2.260;2023-07-22T07:36:15;13.88;;;6.00;;
59306;SDS011;47983;53.016;-2.260;2023-07-22T07:38:43;18.02;;;6.07;;
59306;SDS011;47983;53.016;-2.260;2023-07-22T07:41:11;11.80;;;6.15;;
59306;SDS011;47983;53.016;-2.260;2023-07-22T07:43:42;13.00;;;6.07;;
59306;SDS011;47983;53.016;-2.260;2023-07-22T07:46:24;17.33;;;6.45;;
59306;SDS011;47983;53.016;-2.260;2023-07-22T07:48:56;13.20;;;5.60;;
59306;SDS011;47983;53.016;-2.260;2023-07-22T07:51:27;13.02;;;5.60;;
59306;SDS011;47983;53.016;-2.260;2023-07-22T07:53:57;13.27;;;6.28;;
59306;SDS011;47983;53.016;-2.260;2023-07-22T07:56:25;14.73;;;6.10;;
59306;SDS011;47983;53.016;-2.260;2023-07-22T07:58:54;12.23;;;5.95;;
59306;SDS011;47983;53.016;-2.260;2023-07-22T08:01:22;10.77;;;5.50;;
59306;SDS011;47983;53.016;-2.260;2023-07-22T08:03:50;12.18;;;5.63;;
59306;SDS011;47983;53.016;-2.260;2023-07-22T08:06:18;11.02;;;5.53;;
59306;SDS011;47983;53.016;-2.260;2023-07-22T08:08:48;12.50;;;6.07;;
59306;SDS011;47983;53.016;-2.260;2023-07-22T08:11:17;15.75;;;6.53;;
59306;SDS011;47983;53.016;-2.260;2023-07-22T08:13:45;14.57;;;6.88;;
59306;SDS011;47983;53.016;-2.260;2023-07-22T08:16:15;15.35;;;6.60;;
59306;SDS011;47983;53.016;-2.260;2023-07-22T08:18:43;21.33;;;7.60;;
59306;SDS011;47983;53.016;-2.260;2023-07-22T08:21:11;19.85;;;6.78;;
59306;SDS011;47983;53.016;-2.260;2023-07-22T08:23:38;19.13;;;6.88;;
59306;SDS011;47983;53.016;-2.260;2023-07-22T08:26:06;13.85;;;6.57;;
59306;SDS011;47983;53.016;-2.260;2023-07-22T08:28:34;14.80;;;6.53;;
59306;SDS011;47983;53.016;-2.260;2023-07-22T08:31:02;15.63;;;6.60;;
59306;SDS011;47983;53.016;-2.260;2023-07-22T08:33:30;14.15;;;6.38;;
59306;SDS011;47983;53.016;-2.260;2023-07-22T08:36:00;15.02;;;7.10;;
59306;SDS011;47983;53.016;-2.260;2023-07-22T08:38:30;15.82;;;6.82;;
59306;SDS011;47983;53.016;-2.260;2023-07-22T08:40:58;14.85;;;6.70;;
59306;SDS011;47983;53.016;-2.260;2023-07-22T08:43:26;14.55;;;6.88;;
59306;SDS011;47983;53.016;-2.260;2023-07-22T08:45:56;17.48;;;6.72;;
59306;SDS011;47983;53.016;-2.260;2023-07-22T08:48:29;15.75;;;6.35;;
59306;SDS011;47983;53.016;-2.260;2023-07-22T08:51:04;14.95;;;6.38;;
59306;SDS011;47983;53.016;-2.260;2023-07-22T08:53:33;17.30;;;7.32;;
59306;SDS011;47983;53.016;-2.260;2023-07-22T08:56:01;14.82;;;6.80;;
59306;SDS011;47983;53.016;-2.260;2023-07-22T08:58:29;19.75;;;7.15;;
59306;SDS011;47983;53.016;-2.260;2023-07-22T09:00:57;16.33;;;7.30;;
59306;SDS011;47983;53.016;-2.260;2023-07-22T09:03:26;15.87;;;5.80;;
59306;SDS011;47983;53.016;-2.260;2023-07-22T09:05:54;19.15;;;7.10;;
59306;SDS011;47983;53.016;-2.260;2023-07-22T09:08:22;17.05;;;7.03;;
59306;SDS011;47983;53.016;-2.260;2023-07-22T09:10:51;16.05;;;7.63;;
59306;SDS011;47983;53.016;-2.260;2023-07-22T09:13:19;17.67;;;7.25;;
59306;SDS011;47983;53.016;-2.260;2023-07-22T09:15:49;16.83;;;6.93;;
59306;SDS011;47983;53.016;-2.260;2023-07-22T09:18:18;14.53;;;7.20;;
59306;SDS011;47983;53.016;-2.260;2023-07-22T09:20:46;16.80;;;7.07;;
59306;SDS011;47983;53.016;-2.260;2023-07-22T09:23:13;17.63;;;6.93;;
59306;SDS011;47983;53.016;-2.260;2023-07-22T09:25:41;17.27;;;7.57;;
59306;SDS011;47983;53.016;-2.260;2023-07-22T09:28:09;16.60;;;6.90;;
59306;SDS011;47983;53.016;-2.260;2023-07-22T09:30:38;14.93;;;7.75;;
59306;SDS011;47983;53.016;-2.260;2023-07-22T09:33:19;17.10;;;7.65;;
59306;SDS011;47983;53.016;-2.260;2023-07-22T09:35:49;15.43;;;6.90;;
59306;SDS011;47983;53.016;-2.260;2023-07-22T09:38:23;13.02;;;6.57;;
59306;SDS011;47983;53.016;-2.260;2023-07-22T09:40:53;13.82;;;6.55;;
59306;SDS011;47983;53.016;-2.260;2023-07-22T09:43:21;17.10;;;7.30;;
59306;SDS011;47983;53.016;-2.260;2023-07-22T09:45:50;14.55;;;7.30;;
59306;SDS011;47983;53.016;-2.260;2023-07-22T09:48:18;14.65;;;6.30;;
59306;SDS011;47983;53.016;-2.260;2023-07-22T09:50:57;13.70;;;5.95;;
59306;SDS011;47983;53.016;-2.260;2023-07-22T09:53:25;14.70;;;7.50;;
59306;SDS011;47983;53.016;-2.260;2023-07-22T09:55:53;11.70;;;6.13;;
59306;SDS011;47983;53.016;-2.260;2023-07-22T09:58:21;11.75;;;6.13;;
59306;SDS011;47983;53.016;-2.260;2023-07-22T10:00:54;12.10;;;6.07;;
59306;SDS011;47983;53.016;-2.260;2023-07-22T10:03:22;19.88;;;6.03;;
59306;SDS011;47983;53.016;-2.260;2023-07-22T10:05:56;13.35;;;6.80;;
59306;SDS011;47983;53.016;-2.260;2023-07-22T10:08:30;13.65;;;5.78;;
59306;SDS011;47983;53.016;-2.260;2023-07-22T10:11:05;10.73;;;5.30;;
59306;SDS011;47983;53.016;-2.260;2023-07-22T10:13:36;9.98;;;5.05;;
59306;SDS011;47983;53.016;-2.260;2023-07-22T10:16:05;14.82;;;5.43;;
59306;SDS011;47983;53.016;-2.260;2023-07-22T10:18:33;10.07;;;5.20;;
59306;SDS011;47983;53.016;-2.260;2023-07-22T10:21:01;10.27;;;4.85;;
59306;SDS011;47983;53.016;-2.260;2023-07-22T10:23:30;8.20;;;4.63;;
59306;SDS011;47983;53.016;-2.260;2023-07-22T10:25:59;7.57;;;4.50;;
59306;SDS011;47983;53.016;-2.260;2023-07-22T10:28:27;11.48;;;4.90;;
59306;SDS011;47983;53.016;-2.260;2023-07-22T10:30:56;6.97;;;4.00;;
59306;SDS011;47983;53.016;-2.260;2023-07-22T10:33:24;7.18;;;4.00;;
59306;SDS011;47983;53.016;-2.260;2023-07-22T10:36:08;8.48;;;4.13;;
59306;SDS011;47983;53.016;-2.260;2023-07-22T10:38:39;7.95;;;3.80;;
59306;SDS011;47983;53.016;-2.260;2023-07-22T10:41:14;6.43;;;3.80;;
59306;SDS011;47983;53.016;-2.260;2023-07-22T10:43:55;9.15;;;3.58;;
59306;SDS011;47983;53.016;-2.260;2023-07-22T10:46:32;6.97;;;3.50;;
59306;SDS011;47983;53.016;-2.260;2023-07-22T10:49:12;5.10;;;2.92;;
59306;SDS011;47983;53.016;-2.260;2023-07-22T10:51:41;5.82;;;2.90;;
59306;SDS011;47983;53.016;-2.260;2023-07-22T10:54:31;4.97;;;2.50;;
59306;SDS011;47983;53.016;-2.260;2023-07-22T10:57:04;6.45;;;2.50;;
59306;SDS011;47983;53.016;-2.260;2023-07-22T10:59:51;7.15;;;3.22;;
59306;SDS011;47983;53.016;-2.260;2023-07-22T11:02:26;4.68;;;2.65;;
59306;SDS011;47983;53.016;-2.260;2023-07-22T11:04:58;4.03;;;2.22;;
59306;SDS011;47983;53.016;-2.260;2023-07-22T11:07:34;4.10;;;2.53;;
59306;SDS011;47983;53.016;-2.260;2023-07-22T11:10:14;3.72;;;2.05;;
59306;SDS011;47983;53.016;-2.260;2023-07-22T11:12:46;2.97;;;2.13;;
59306;SDS011;47983;53.016;-2.260;2023-07-22T11:15:16;4.00;;;2.17;;
59306;SDS011;47983;53.016;-2.260;2023-07-22T11:17:44;3.33;;;1.88;;
59306;SDS011;47983;53.016;-2.260;2023-07-22T11:20:12;3.05;;;1.90;;
59306;SDS011;47983;53.016;-2.260;2023-07-22T11:22:40;3.10;;;1.80;;
59306;SDS011;47983;53.016;-2.260;2023-07-22T11:25:08;3.42;;;2.05;;
59306;SDS011;47983;53.016;-2.260;2023-07-22T11:27:36;2.33;;;1.85;;
59306;SDS011;47983;53.016;-2.260;2023-07-22T11:30:04;5.82;;;2.35;;
59306;SDS011;47983;53.016;-2.260;2023-07-22T11:32:33;4.40;;;1.85;;
59306;SDS011;47983;53.016;-2.260;2023-07-22T11:35:01;3.63;;;2.10;;
59306;SDS011;47983;53.016;-2.260;2023-07-22T11:37:29;2.40;;;1.80;;
59306;SDS011;47983;53.016;-2.260;2023-07-22T11:40:00;2.70;;;1.95;;
59306;SDS011;47983;53.016;-2.260;2023-07-22T11:42:28;4.63;;;2.50;;
59306;SDS011;47983;53.016;-2.260;2023-07-22T11:44:56;3.10;;;2.08;;
59306;SDS011;47983;53.016;-2.260;2023-07-22T11:47:30;3.78;;;2.05;;
59306;SDS011;47983;53.016;-2.260;2023-07-22T11:49:58;5.57;;;2.40;;
59306;SDS011;47983;53.016;-2.260;2023-07-22T11:52:28;3.67;;;2.13;;
59306;SDS011;47983;53.016;-2.260;2023-07-22T11:54:55;3.75;;;2.22;;
59306;SDS011;47983;53.016;-2.260;2023-07-22T11:57:30;4.50;;;2.40;;
59306;SDS011;47983;53.016;-2.260;2023-07-22T11:59:58;4.43;;;2.20;;
59306;SDS011;47983;53.016;-2.260;2023-07-22T12:02:26;5.82;;;2.65;;
59306;SDS011;47983;53.016;-2.260;2023-07-22T12:05:02;4.65;;;2.53;;
59306;SDS011;47983;53.016;-2.260;2023-07-22T12:07:33;5.32;;;2.75;;
59306;SDS011;47983;53.016;-2.260;2023-07-22T12:10:04;4.45;;;2.40;;
59306;SDS011;47983;53.016;-2.260;2023-07-22T12:12:33;5.55;;;3.03;;
59306;SDS011;47983;53.016;-2.260;2023-07-22T12:15:09;5.03;;;3.30;;
59306;SDS011;47983;53.016;-2.260;2023-07-22T12:17:50;5.25;;;3.15;;
59306;SDS011;47983;53.016;-2.260;2023-07-22T12:20:26;4.47;;;2.58;;
59306;SDS011;47983;53.016;-2.260;2023-07-22T12:22:55;4.95;;;2.15;;
59306;SDS011;47983;53.016;-2.260;2023-07-22T12:25:23;2.67;;;2.10;;
59306;SDS011;47983;53.016;-2.260;2023-07-22T12:27:51;4.15;;;2.30;;
59306;SDS011;47983;53.016;-2.260;2023-07-22T12:30:19;6.35;;;2.70;;
59306;SDS011;47983;53.016;-2.260;2023-07-22T12:32:48;4.72;;;2.45;;
59306;SDS011;47983;53.016;-2.260;2023-07-22T12:35:16;3.58;;;2.20;;
59306;SDS011;47983;53.016;-2.260;2023-07-22T12:37:43;5.10;;;2.90;;
59306;SDS011;47983;53.016;-2.260;2023-07-22T12:40:11;4.43;;;2.20;;
59306;SDS011;47983;53.016;-2.260;2023-07-22T12:42:39;3.65;;;2.20;;
59306;SDS011;47983;53.016;-2.260;2023-07-22T12:45:08;4.60;;;1.90;;
59306;SDS011;47983;53.016;-2.260;2023-07-22T12:47:36;2.85;;;1.90;;
59306;SDS011;47983;53.016;-2.260;2023-07-22T12:50:07;3.47;;;2.20;;
59306;SDS011;47983;53.016;-2.260;2023-07-22T12:52:35;2.78;;;1.77;;
59306;SDS011;47983;53.016;-2.260;2023-07-22T12:55:04;3.05;;;2.00;;
59306;SDS011;47983;53.016;-2.260;2023-07-22T12:57:32;4.20;;;1.80;;
59306;SDS011;47983;53.016;-2.260;2023-07-22T12:59:59;3.28;;;1.55;;
59306;SDS011;47983;53.016;-2.260;2023-07-22T13:02:27;3.53;;;1.80;;
59306;SDS011;47983;53.016;-2.260;2023-07-22T13:04:55;3.45;;;1.48;;
59306;SDS011;47983;53.016;-2.260;2023-07-22T13:07:22;2.50;;;1.30;;
59306;SDS011;47983;53.016;-2.260;2023-07-22T13:09:50;2.72;;;1.67;;
59306;SDS011;47983;53.016;-2.260;2023-07-22T13:12:20;2.03;;;1.52;;
59306;SDS011;47983;53.016;-2.260;2023-07-22T13:14:48;3.35;;;1.73;;
59306;SDS011;47983;53.016;-2.260;2023-07-22T13:17:15;3.25;;;1.30;;
59306;SDS011;47983;53.016;-2.260;2023-07-22T13:19:43;2.90;;;1.70;;
59306;SDS011;47983;53.016;-2.260;2023-07-22T13:22:11;1.88;;;1.33;;
59306;SDS011;47983;53.016;-2.260;2023-07-22T13:24:38;1.85;;;1.30;;
59306;SDS011;47983;53.016;-2.260;2023-07-22T13:27:06;3.08;;;1.60;;
59306;SDS011;47983;53.016;-2.260;2023-07-22T13:29:34;2.97;;;1.05;;
59306;SDS011;47983;53.016;-2.260;2023-07-22T13:32:02;1.95;;;1.08;;
59306;SDS011;47983;53.016;-2.260;2023-07-22T13:34:31;1.58;;;1.23;;
59306;SDS011;47983;53.016;-2.260;2023-07-22T13:36:59;2.88;;;1.55;;
59306;SDS011;47983;53.016;-2.260;2023-07-22T13:39:29;2.00;;;1.35;;
59306;SDS011;47983;53.016;-2.260;2023-07-22T13:41:57;1.77;;;1.38;;
59306;SDS011;47983;53.016;-2.260;2023-07-22T13:44:25;3.22;;;1.75;;
59306;SDS011;47983;53.016;-2.260;2023-07-22T13:46:53;5.10;;;1.50;;
59306;SDS011;47983;53.016;-2.260;2023-07-22T13:49:20;3.40;;;1.83;;
59306;SDS011;47983;53.016;-2.260;2023-07-22T13:51:48;2.97;;;1.73;;
59306;SDS011;47983;53.016;-2.260;2023-07-22T13:54:17;2.60;;;1.77;;
59306;SDS011;47983;53.016;-2.260;2023-07-22T13:56:46;5.22;;;3.38;;
59306;SDS011;47983;53.016;-2.260;2023-07-22T13:59:14;3.75;;;2.58;;
59306;SDS011;47983;53.016;-2.260;2023-07-22T14:01:42;3.85;;;2.40;;
59306;SDS011;47983;53.016;-2.260;2023-07-22T14:04:10;4.82;;;2.85;;
59306;SDS011;47983;53.016;-2.260;2023-07-22T14:06:38;2.67;;;1.48;;
59306;SDS011;47983;53.016;-2.260;2023-07-22T14:09:05;2.90;;;1.88;;
59306;SDS011;47983;53.016;-2.260;2023-07-22T14:11:53;5.20;;;1.33;;
59306;SDS011;47983;53.016;-2.260;2023-07-22T14:14:21;1.83;;;1.30;;
59306;SDS011;47983;53.016;-2.260;2023-07-22T14:16:56;3.00;;;1.50;;
59306;SDS011;47983;53.016;-2.260;2023-07-22T14:19:24;2.42;;;1.30;;
59306;SDS011;47983;53.016;-2.260;2023-07-22T14:21:51;2.90;;;1.63;;
59306;SDS011;47983;53.016;-2.260;2023-07-22T14:24:19;3.25;;;1.58;;
59306;SDS011;47983;53.016;-2.260;2023-07-22T14:26:48;3.78;;;1.30;;
59306;SDS011;47983;53.016;-2.260;2023-07-22T14:29:16;3.08;;;1.38;;
59306;SDS011;47983;53.016;-2.260;2023-07-22T14:31:44;3.45;;;1.83;;
59306;SDS011;47983;53.016;-2.260;2023-07-22T14:34:13;3.45;;;1.30;;
59306;SDS011;47983;53.016;-2.260;2023-07-22T14:36:41;2.10;;;1.20;;
59306;SDS011;47983;53.016;-2.260;2023-07-22T14:39:12;1.83;;;1.17;;
59306;SDS011;47983;53.016;-2.260;2023-07-22T14:41:40;3.25;;;1.48;;